sensor_id;sensor_type;location;lat;lon;timestamp;P1;durP1;ratioP1;P2;durP2;ratioP2
73575;SDS011;61859;49.204;8.140;2022-10-31T00:00:18;4.20;;;2.90;;
73575;SDS011;61859;49.204;8.140;2022-10-31T00:02:43;4.20;;;2.43;;
73575;SDS011;61859;49.204;8.140;2022-10-31T00:05:09;3.60;;;2.53;;
73575;SDS011;61859;49.204;8.140;2022-10-31T00:07:35;3.70;;;2.30;;
73575;SDS011;61859;49.204;8.140;2022-10-31T00:10:00;5.93;;;2.57;;
73575;SDS011;61859;49.204;8.140;2022-10-31T00:12:26;3.67;;;2.80;;
73575;SDS011;61859;49.204;8.140;2022-10-31T00:14:52;6.00;;;2.50;;
73575;SDS011;61859;49.204;8.140;2022-10-31T00:17:18;4.70;;;2.37;;
73575;SDS011;61859;49.204;8.140;2022-10-31T00:19:43;4.53;;;2.37;;
73575;SDS011;61859;49.204;8.140;2022-10-31T00:22:09;2.67;;;2.23;;
73575;SDS011;61859;49.204;8.140;2022-10-31T00:24:35;3.20;;;1.90;;
73575;SDS011;61859;49.204;8.140;2022-10-31T00:27:00;2.90;;;2.00;;
73575;SDS011;61859;49.204;8.140;2022-10-31T00:29:26;7.80;;;2.60;;
73575;SDS011;61859;49.204;8.140;2022-10-31T00:31:51;2.87;;;2.17;;
73575;SDS011;61859;49.204;8.140;2022-10-31T00:34:17;4.43;;;2.43;;
73575;SDS011;61859;49.204;8.140;2022-10-31T00:36:43;4.40;;;2.20;;
73575;SDS011;61859;49.204;8.140;2022-10-31T00:39:08;4.03;;;2.40;;
73575;SDS011;61859;49.204;8.140;2022-10-31T00:41:34;5.07;;;2.43;;
73575;SDS011;61859;49.204;8.140;2022-10-31T00:43:59;4.73;;;2.40;;
73575;SDS011;61859;49.204;8.140;2022-10-31T00:46:25;3.73;;;2.70;;
73575;SDS011;61859;49.204;8.140;2022-10-31T00:48:51;4.13;;;2.80;;
73575;SDS011;61859;49.204;8.140;2022-10-31T00:51:16;6.83;;;2.53;;
73575;SDS011;61859;49.204;8.140;2022-10-31T00:53:42;3.90;;;2.20;;
73575;SDS011;61859;49.204;8.140;2022-10-31T00:56:07;2.57;;;2.20;;
73575;SDS011;61859;49.204;8.140;2022-10-31T00:58:33;5.40;;;2.40;;
73575;SDS011;61859;49.204;8.140;2022-10-31T01:00:58;4.00;;;1.83;;
73575;SDS011;61859;49.204;8.140;2022-10-31T01:03:25;3.13;;;2.23;;
73575;SDS011;61859;49.204;8.140;2022-10-31T01:05:56;5.20;;;2.17;;
73575;SDS011;61859;49.204;8.140;2022-10-31T01:08:27;3.30;;;2.30;;
73575;SDS011;61859;49.204;8.140;2022-10-31T01:11:03;2.83;;;2.43;;
73575;SDS011;61859;49.204;8.140;2022-10-31T01:13:34;5.83;;;2.17;;
73575;SDS011;61859;49.204;8.140;2022-10-31T01:16:01;2.23;;;1.90;;
73575;SDS011;61859;49.204;8.140;2022-10-31T01:18:28;5.23;;;2.07;;
73575;SDS011;61859;49.204;8.140;2022-10-31T01:21:01;2.73;;;2.30;;
73575;SDS011;61859;49.204;8.140;2022-10-31T01:23:31;3.23;;;2.00;;
73575;SDS011;61859;49.204;8.140;2022-10-31T01:26:02;4.50;;;1.80;;
73575;SDS011;61859;49.204;8.140;2022-10-31T01:28:29;6.20;;;2.03;;
73575;SDS011;61859;49.204;8.140;2022-10-31T01:30:55;3.80;;;1.93;;
73575;SDS011;61859;49.204;8.140;2022-10-31T01:33:20;4.13;;;1.93;;
73575;SDS011;61859;49.204;8.140;2022-10-31T01:35:46;2.33;;;1.80;;
73575;SDS011;61859;49.204;8.140;2022-10-31T01:38:11;3.40;;;2.40;;
73575;SDS011;61859;49.204;8.140;2022-10-31T01:40:37;4.03;;;2.30;;
73575;SDS011;61859;49.204;8.140;2022-10-31T01:43:02;2.13;;;1.93;;
73575;SDS011;61859;49.204;8.140;2022-10-31T01:45:28;6.33;;;2.17;;
73575;SDS011;61859;49.204;8.140;2022-10-31T01:47:53;2.27;;;1.67;;
73575;SDS011;61859;49.204;8.140;2022-10-31T01:50:30;4.63;;;1.70;;
73575;SDS011;61859;49.204;8.140;2022-10-31T01:53:02;2.00;;;1.80;;
73575;SDS011;61859;49.204;8.140;2022-10-31T01:55:30;2.60;;;2.10;;
73575;SDS011;61859;49.204;8.140;2022-10-31T01:58:03;2.80;;;1.97;;
73575;SDS011;61859;49.204;8.140;2022-10-31T02:00:33;3.33;;;2.00;;
73575;SDS011;61859;49.204;8.140;2022-10-31T02:02:59;3.83;;;1.90;;
73575;SDS011;61859;49.204;8.140;2022-10-31T02:05:25;3.90;;;2.07;;
73575;SDS011;61859;49.204;8.140;2022-10-31T02:10:43;2.83;;;2.00;;
73575;SDS011;61859;49.204;8.140;2022-10-31T02:13:10;5.03;;;2.10;;
73575;SDS011;61859;49.204;8.140;2022-10-31T02:15:37;1.70;;;1.60;;
73575;SDS011;61859;49.204;8.140;2022-10-31T02:18:05;2.47;;;1.57;;
73575;SDS011;61859;49.204;8.140;2022-10-31T02:20:33;2.97;;;2.00;;
73575;SDS011;61859;49.204;8.140;2022-10-31T02:23:18;2.47;;;1.80;;
73575;SDS011;61859;49.204;8.140;2022-10-31T02:34:25;8.67;;;2.10;;
73575;SDS011;61859;49.204;8.140;2022-10-31T02:37:12;3.13;;;1.90;;
73575;SDS011;61859;49.204;8.140;2022-10-31T02:42:50;5.53;;;2.40;;
73575;SDS011;61859;49.204;8.140;2022-10-31T02:45:31;3.50;;;2.27;;
73575;SDS011;61859;49.204;8.140;2022-10-31T02:48:07;2.23;;;2.03;;
73575;SDS011;61859;49.204;8.140;2022-10-31T02:50:38;3.47;;;2.23;;
73575;SDS011;61859;49.204;8.140;2022-10-31T02:53:06;1.93;;;1.73;;
73575;SDS011;61859;49.204;8.140;2022-10-31T02:58:02;6.73;;;2.63;;
73575;SDS011;61859;49.204;8.140;2022-10-31T03:03:25;2.60;;;2.07;;
73575;SDS011;61859;49.204;8.140;2022-10-31T03:08:49;4.17;;;2.00;;
73575;SDS011;61859;49.204;8.140;2022-10-31T03:11:23;4.63;;;1.97;;
73575;SDS011;61859;49.204;8.140;2022-10-31T03:19:12;2.63;;;2.20;;
73575;SDS011;61859;49.204;8.140;2022-10-31T03:21:47;2.30;;;2.07;;
73575;SDS011;61859;49.204;8.140;2022-10-31T03:24:27;4.47;;;2.37;;
73575;SDS011;61859;49.204;8.140;2022-10-31T03:27:00;4.23;;;2.47;;
73575;SDS011;61859;49.204;8.140;2022-10-31T03:29:28;4.00;;;2.17;;
73575;SDS011;61859;49.204;8.140;2022-10-31T03:31:58;3.30;;;2.07;;
73575;SDS011;61859;49.204;8.140;2022-10-31T03:34:31;2.57;;;1.80;;
73575;SDS011;61859;49.204;8.140;2022-10-31T03:36:59;3.40;;;2.30;;
73575;SDS011;61859;49.204;8.140;2022-10-31T03:39:28;5.07;;;2.57;;
73575;SDS011;61859;49.204;8.140;2022-10-31T03:42:12;5.50;;;2.07;;
73575;SDS011;61859;49.204;8.140;2022-10-31T03:44:42;3.00;;;2.00;;
73575;SDS011;61859;49.204;8.140;2022-10-31T03:47:13;3.57;;;2.33;;
73575;SDS011;61859;49.204;8.140;2022-10-31T03:49:39;2.13;;;1.87;;
73575;SDS011;61859;49.204;8.140;2022-10-31T03:52:13;3.47;;;2.50;;
73575;SDS011;61859;49.204;8.140;2022-10-31T03:54:44;3.37;;;2.20;;
73575;SDS011;61859;49.204;8.140;2022-10-31T03:57:14;2.77;;;2.33;;
73575;SDS011;61859;49.204;8.140;2022-10-31T03:59:45;2.43;;;2.00;;
73575;SDS011;61859;49.204;8.140;2022-10-31T04:02:33;3.87;;;1.97;;
73575;SDS011;61859;49.204;8.140;2022-10-31T04:05:02;2.27;;;1.83;;
73575;SDS011;61859;49.204;8.140;2022-10-31T04:07:30;2.17;;;1.83;;
73575;SDS011;61859;49.204;8.140;2022-10-31T04:10:00;2.77;;;2.20;;
73575;SDS011;61859;49.204;8.140;2022-10-31T04:12:29;3.20;;;2.30;;
73575;SDS011;61859;49.204;8.140;2022-10-31T04:14:57;2.93;;;2.07;;
73575;SDS011;61859;49.204;8.140;2022-10-31T04:17:27;4.20;;;2.30;;
73575;SDS011;61859;49.204;8.140;2022-10-31T04:19:58;4.83;;;2.40;;
73575;SDS011;61859;49.204;8.140;2022-10-31T04:22:25;2.77;;;2.00;;
73575;SDS011;61859;49.204;8.140;2022-10-31T04:24:50;3.73;;;2.30;;
73575;SDS011;61859;49.204;8.140;2022-10-31T04:27:16;4.43;;;2.50;;
73575;SDS011;61859;49.204;8.140;2022-10-31T04:29:42;3.87;;;2.40;;
73575;SDS011;61859;49.204;8.140;2022-10-31T04:32:07;4.77;;;2.20;;
73575;SDS011;61859;49.204;8.140;2022-10-31T04:34:33;3.80;;;2.30;;
73575;SDS011;61859;49.204;8.140;2022-10-31T04:36:58;4.37;;;2.50;;
73575;SDS011;61859;49.204;8.140;2022-10-31T04:39:24;3.97;;;2.60;;
73575;SDS011;61859;49.204;8.140;2022-10-31T04:41:49;3.07;;;2.37;;
73575;SDS011;61859;49.204;8.140;2022-10-31T04:44:15;3.20;;;2.30;;
73575;SDS011;61859;49.204;8.140;2022-10-31T04:46:41;2.73;;;2.23;;
73575;SDS011;61859;49.204;8.140;2022-10-31T04:49:07;4.60;;;2.80;;
73575;SDS011;61859;49.204;8.140;2022-10-31T04:51:32;2.90;;;2.40;;
73575;SDS011;61859;49.204;8.140;2022-10-31T04:53:58;3.17;;;2.10;;
73575;SDS011;61859;49.204;8.140;2022-10-31T04:56:23;3.00;;;2.13;;
73575;SDS011;61859;49.204;8.140;2022-10-31T04:58:49;5.43;;;2.70;;
73575;SDS011;61859;49.204;8.140;2022-10-31T05:01:14;4.40;;;2.67;;
73575;SDS011;61859;49.204;8.140;2022-10-31T05:03:40;3.77;;;2.60;;
73575;SDS011;61859;49.204;8.140;2022-10-31T05:06:06;3.90;;;2.40;;
73575;SDS011;61859;49.204;8.140;2022-10-31T05:08:32;4.03;;;2.80;;
73575;SDS011;61859;49.204;8.140;2022-10-31T05:11:01;5.43;;;2.43;;
73575;SDS011;61859;49.204;8.140;2022-10-31T05:13:27;2.67;;;2.37;;
73575;SDS011;61859;49.204;8.140;2022-10-31T05:15:53;4.13;;;2.97;;
73575;SDS011;61859;49.204;8.140;2022-10-31T05:18:19;2.30;;;2.10;;
73575;SDS011;61859;49.204;8.140;2022-10-31T05:20:44;4.03;;;2.47;;
73575;SDS011;61859;49.204;8.140;2022-10-31T05:23:10;4.40;;;2.77;;
73575;SDS011;61859;49.204;8.140;2022-10-31T05:25:35;4.40;;;2.50;;
73575;SDS011;61859;49.204;8.140;2022-10-31T05:28:01;5.10;;;2.70;;
73575;SDS011;61859;49.204;8.140;2022-10-31T05:30:28;5.27;;;2.60;;
73575;SDS011;61859;49.204;8.140;2022-10-31T05:32:55;4.40;;;3.07;;
73575;SDS011;61859;49.204;8.140;2022-10-31T05:35:22;4.00;;;2.70;;
73575;SDS011;61859;49.204;8.140;2022-10-31T05:37:49;4.00;;;2.47;;
73575;SDS011;61859;49.204;8.140;2022-10-31T05:40:15;5.13;;;3.20;;
73575;SDS011;61859;49.204;8.140;2022-10-31T05:42:42;5.17;;;3.20;;
73575;SDS011;61859;49.204;8.140;2022-10-31T05:45:10;3.20;;;2.90;;
73575;SDS011;61859;49.204;8.140;2022-10-31T05:47:37;5.00;;;2.70;;
73575;SDS011;61859;49.204;8.140;2022-10-31T05:50:03;3.87;;;2.60;;
73575;SDS011;61859;49.204;8.140;2022-10-31T05:52:29;3.67;;;2.63;;
73575;SDS011;61859;49.204;8.140;2022-10-31T05:54:55;3.43;;;2.90;;
73575;SDS011;61859;49.204;8.140;2022-10-31T05:57:21;3.30;;;2.40;;
73575;SDS011;61859;49.204;8.140;2022-10-31T05:59:46;6.00;;;3.23;;
73575;SDS011;61859;49.204;8.140;2022-10-31T06:02:12;3.87;;;2.87;;
73575;SDS011;61859;49.204;8.140;2022-10-31T06:04:37;3.10;;;2.80;;
73575;SDS011;61859;49.204;8.140;2022-10-31T06:07:03;3.10;;;2.60;;
73575;SDS011;61859;49.204;8.140;2022-10-31T06:09:28;4.30;;;3.03;;
73575;SDS011;61859;49.204;8.140;2022-10-31T06:11:54;4.47;;;2.77;;
73575;SDS011;61859;49.204;8.140;2022-10-31T06:14:19;4.57;;;3.00;;
73575;SDS011;61859;49.204;8.140;2022-10-31T06:16:45;3.93;;;2.60;;
73575;SDS011;61859;49.204;8.140;2022-10-31T06:19:10;5.57;;;2.60;;
73575;SDS011;61859;49.204;8.140;2022-10-31T06:21:36;6.53;;;3.40;;
73575;SDS011;61859;49.204;8.140;2022-10-31T06:24:01;4.23;;;3.03;;
73575;SDS011;61859;49.204;8.140;2022-10-31T06:26:27;3.00;;;2.60;;
73575;SDS011;61859;49.204;8.140;2022-10-31T06:28:53;5.80;;;2.60;;
73575;SDS011;61859;49.204;8.140;2022-10-31T06:31:18;2.73;;;2.53;;
73575;SDS011;61859;49.204;8.140;2022-10-31T06:33:44;5.00;;;3.13;;
73575;SDS011;61859;49.204;8.140;2022-10-31T06:36:09;2.83;;;2.57;;
73575;SDS011;61859;49.204;8.140;2022-10-31T06:38:35;3.57;;;3.00;;
73575;SDS011;61859;49.204;8.140;2022-10-31T06:41:04;3.67;;;2.90;;
73575;SDS011;61859;49.204;8.140;2022-10-31T06:43:30;3.33;;;2.83;;
73575;SDS011;61859;49.204;8.140;2022-10-31T06:45:56;4.10;;;2.73;;
73575;SDS011;61859;49.204;8.140;2022-10-31T06:48:22;7.10;;;3.47;;
73575;SDS011;61859;49.204;8.140;2022-10-31T06:50:48;3.33;;;2.73;;
73575;SDS011;61859;49.204;8.140;2022-10-31T06:53:14;3.07;;;2.63;;
73575;SDS011;61859;49.204;8.140;2022-10-31T06:55:40;4.83;;;2.97;;
73575;SDS011;61859;49.204;8.140;2022-10-31T06:58:06;5.13;;;3.53;;
73575;SDS011;61859;49.204;8.140;2022-10-31T07:00:34;3.77;;;3.00;;
73575;SDS011;61859;49.204;8.140;2022-10-31T07:03:05;4.23;;;3.37;;
73575;SDS011;61859;49.204;8.140;2022-10-31T07:05:32;5.40;;;3.30;;
73575;SDS011;61859;49.204;8.140;2022-10-31T07:07:59;4.10;;;3.57;;
73575;SDS011;61859;49.204;8.140;2022-10-31T07:10:27;6.27;;;3.97;;
73575;SDS011;61859;49.204;8.140;2022-10-31T07:12:58;6.03;;;4.53;;
73575;SDS011;61859;49.204;8.140;2022-10-31T07:15:26;3.73;;;3.33;;
73575;SDS011;61859;49.204;8.140;2022-10-31T07:17:53;4.83;;;3.60;;
73575;SDS011;61859;49.204;8.140;2022-10-31T07:20:19;4.63;;;3.27;;
73575;SDS011;61859;49.204;8.140;2022-10-31T07:22:45;7.17;;;4.00;;
73575;SDS011;61859;49.204;8.140;2022-10-31T07:25:10;7.23;;;4.13;;
73575;SDS011;61859;49.204;8.140;2022-10-31T07:27:41;7.87;;;3.40;;
73575;SDS011;61859;49.204;8.140;2022-10-31T07:30:08;4.17;;;3.53;;
73575;SDS011;61859;49.204;8.140;2022-10-31T07:32:39;5.73;;;4.07;;
73575;SDS011;61859;49.204;8.140;2022-10-31T07:35:09;6.83;;;4.03;;
73575;SDS011;61859;49.204;8.140;2022-10-31T07:37:35;4.43;;;3.83;;
73575;SDS011;61859;49.204;8.140;2022-10-31T07:40:05;6.17;;;3.37;;
73575;SDS011;61859;49.204;8.140;2022-10-31T07:42:35;5.70;;;3.57;;
73575;SDS011;61859;49.204;8.140;2022-10-31T07:45:01;5.47;;;3.90;;
73575;SDS011;61859;49.204;8.140;2022-10-31T07:47:28;5.23;;;4.03;;
73575;SDS011;61859;49.204;8.140;2022-10-31T07:49:54;7.33;;;3.93;;
73575;SDS011;61859;49.204;8.140;2022-10-31T07:52:19;4.23;;;3.60;;
73575;SDS011;61859;49.204;8.140;2022-10-31T07:54:45;4.43;;;3.53;;
73575;SDS011;61859;49.204;8.140;2022-10-31T07:57:10;6.17;;;3.53;;
73575;SDS011;61859;49.204;8.140;2022-10-31T07:59:36;5.60;;;3.83;;
73575;SDS011;61859;49.204;8.140;2022-10-31T08:02:01;7.93;;;4.07;;
73575;SDS011;61859;49.204;8.140;2022-10-31T08:04:27;4.87;;;3.80;;
73575;SDS011;61859;49.204;8.140;2022-10-31T08:06:52;6.33;;;3.80;;
73575;SDS011;61859;49.204;8.140;2022-10-31T08:09:18;5.50;;;3.70;;
73575;SDS011;61859;49.204;8.140;2022-10-31T08:11:44;5.47;;;3.90;;
73575;SDS011;61859;49.204;8.140;2022-10-31T08:14:09;5.93;;;3.80;;
73575;SDS011;61859;49.204;8.140;2022-10-31T08:16:35;5.63;;;4.50;;
73575;SDS011;61859;49.204;8.140;2022-10-31T08:19:00;4.93;;;3.23;;
73575;SDS011;61859;49.204;8.140;2022-10-31T08:21:26;5.67;;;3.27;;
73575;SDS011;61859;49.204;8.140;2022-10-31T08:23:51;4.27;;;3.53;;
73575;SDS011;61859;49.204;8.140;2022-10-31T08:26:17;5.37;;;3.77;;
73575;SDS011;61859;49.204;8.140;2022-10-31T08:28:42;5.13;;;3.80;;
73575;SDS011;61859;49.204;8.140;2022-10-31T08:31:08;11.60;;;4.10;;
73575;SDS011;61859;49.204;8.140;2022-10-31T08:33:35;5.13;;;3.47;;
73575;SDS011;61859;49.204;8.140;2022-10-31T08:36:00;3.50;;;3.10;;
73575;SDS011;61859;49.204;8.140;2022-10-31T08:38:26;6.63;;;3.70;;
73575;SDS011;61859;49.204;8.140;2022-10-31T08:40:51;5.30;;;3.60;;
73575;SDS011;61859;49.204;8.140;2022-10-31T08:43:17;6.90;;;3.73;;
73575;SDS011;61859;49.204;8.140;2022-10-31T08:45:44;8.37;;;3.93;;
73575;SDS011;61859;49.204;8.140;2022-10-31T08:48:15;4.67;;;3.80;;
73575;SDS011;61859;49.204;8.140;2022-10-31T08:50:42;7.57;;;3.63;;
73575;SDS011;61859;49.204;8.140;2022-10-31T08:53:09;7.23;;;4.00;;
73575;SDS011;61859;49.204;8.140;2022-10-31T08:55:37;5.30;;;3.90;;
73575;SDS011;61859;49.204;8.140;2022-10-31T08:58:05;8.30;;;4.07;;
73575;SDS011;61859;49.204;8.140;2022-10-31T09:00:32;8.70;;;3.83;;
73575;SDS011;61859;49.204;8.140;2022-10-31T09:02:59;8.67;;;4.30;;
73575;SDS011;61859;49.204;8.140;2022-10-31T09:05:33;9.43;;;3.50;;
73575;SDS011;61859;49.204;8.140;2022-10-31T09:08:00;6.93;;;3.10;;
73575;SDS011;61859;49.204;8.140;2022-10-31T09:10:27;5.90;;;3.57;;
73575;SDS011;61859;49.204;8.140;2022-10-31T09:13:00;4.83;;;3.37;;
73575;SDS011;61859;49.204;8.140;2022-10-31T09:15:30;6.50;;;3.57;;
73575;SDS011;61859;49.204;8.140;2022-10-31T09:17:55;8.23;;;3.67;;
73575;SDS011;61859;49.204;8.140;2022-10-31T09:20:21;6.90;;;3.60;;
73575;SDS011;61859;49.204;8.140;2022-10-31T09:22:47;9.13;;;3.70;;
73575;SDS011;61859;49.204;8.140;2022-10-31T09:25:12;6.37;;;3.60;;
73575;SDS011;61859;49.204;8.140;2022-10-31T09:27:38;5.13;;;3.43;;
73575;SDS011;61859;49.204;8.140;2022-10-31T09:30:04;4.80;;;3.70;;
73575;SDS011;61859;49.204;8.140;2022-10-31T09:32:30;3.80;;;3.30;;
73575;SDS011;61859;49.204;8.140;2022-10-31T09:34:55;7.03;;;3.77;;
73575;SDS011;61859;49.204;8.140;2022-10-31T09:37:21;6.57;;;3.70;;
73575;SDS011;61859;49.204;8.140;2022-10-31T09:39:46;5.97;;;4.37;;
73575;SDS011;61859;49.204;8.140;2022-10-31T09:45:12;8.77;;;4.27;;
73575;SDS011;61859;49.204;8.140;2022-10-31T09:47:57;11.10;;;4.10;;
73575;SDS011;61859;49.204;8.140;2022-10-31T09:50:49;6.13;;;4.00;;
73575;SDS011;61859;49.204;8.140;2022-10-31T09:53:44;7.13;;;3.77;;
73575;SDS011;61859;49.204;8.140;2022-10-31T09:56:37;6.27;;;4.23;;
73575;SDS011;61859;49.204;8.140;2022-10-31T09:59:04;8.37;;;4.50;;
73575;SDS011;61859;49.204;8.140;2022-10-31T10:01:49;7.43;;;3.97;;
73575;SDS011;61859;49.204;8.140;2022-10-31T10:06:54;7.50;;;4.23;;
73575;SDS011;61859;49.204;8.140;2022-10-31T10:09:22;7.13;;;4.03;;
73575;SDS011;61859;49.204;8.140;2022-10-31T10:17:11;6.80;;;3.97;;
73575;SDS011;61859;49.204;8.140;2022-10-31T10:20:11;5.63;;;4.10;;
73575;SDS011;61859;49.204;8.140;2022-10-31T10:22:46;8.63;;;4.43;;
73575;SDS011;61859;49.204;8.140;2022-10-31T10:25:21;5.00;;;4.23;;
73575;SDS011;61859;49.204;8.140;2022-10-31T10:28:10;5.83;;;4.10;;
73575;SDS011;61859;49.204;8.140;2022-10-31T10:33:26;8.70;;;4.60;;
73575;SDS011;61859;49.204;8.140;2022-10-31T10:36:00;6.27;;;3.93;;
73575;SDS011;61859;49.204;8.140;2022-10-31T10:38:36;6.43;;;4.27;;
73575;SDS011;61859;49.204;8.140;2022-10-31T10:41:14;7.20;;;4.53;;
73575;SDS011;61859;49.204;8.140;2022-10-31T10:43:50;5.60;;;4.77;;
73575;SDS011;61859;49.204;8.140;2022-10-31T10:46:30;6.60;;;4.33;;
73575;SDS011;61859;49.204;8.140;2022-10-31T10:54:43;12.87;;;4.97;;
73575;SDS011;61859;49.204;8.140;2022-10-31T11:00:43;6.73;;;4.70;;
73575;SDS011;61859;49.204;8.140;2022-10-31T11:03:11;7.53;;;4.50;;
73575;SDS011;61859;49.204;8.140;2022-10-31T11:05:51;7.27;;;5.10;;
73575;SDS011;61859;49.204;8.140;2022-10-31T11:08:25;6.83;;;5.40;;
73575;SDS011;61859;49.204;8.140;2022-10-31T11:11:00;9.57;;;5.23;;
73575;SDS011;61859;49.204;8.140;2022-10-31T11:13:33;8.23;;;5.30;;
73575;SDS011;61859;49.204;8.140;2022-10-31T11:16:04;6.30;;;4.93;;
73575;SDS011;61859;49.204;8.140;2022-10-31T11:18:34;6.10;;;4.80;;
73575;SDS011;61859;49.204;8.140;2022-10-31T11:21:04;8.27;;;5.20;;
73575;SDS011;61859;49.204;8.140;2022-10-31T11:23:30;7.07;;;4.77;;
73575;SDS011;61859;49.204;8.140;2022-10-31T11:28:22;8.63;;;5.13;;
73575;SDS011;61859;49.204;8.140;2022-10-31T11:30:50;7.30;;;5.00;;
73575;SDS011;61859;49.204;8.140;2022-10-31T11:33:21;7.53;;;4.87;;
73575;SDS011;61859;49.204;8.140;2022-10-31T11:36:02;7.23;;;4.73;;
73575;SDS011;61859;49.204;8.140;2022-10-31T11:38:40;4.87;;;4.37;;
73575;SDS011;61859;49.204;8.140;2022-10-31T11:41:17;9.87;;;5.27;;
73575;SDS011;61859;49.204;8.140;2022-10-31T11:43:50;7.63;;;4.80;;
73575;SDS011;61859;49.204;8.140;2022-10-31T11:46:45;8.30;;;5.30;;
73575;SDS011;61859;49.204;8.140;2022-10-31T11:49:20;6.87;;;5.30;;
73575;SDS011;61859;49.204;8.140;2022-10-31T11:52:00;7.17;;;4.70;;
73575;SDS011;61859;49.204;8.140;2022-10-31T11:54:32;6.30;;;4.63;;
73575;SDS011;61859;49.204;8.140;2022-10-31T11:57:23;8.23;;;5.00;;
73575;SDS011;61859;49.204;8.140;2022-10-31T11:59:52;11.17;;;5.50;;
73575;SDS011;61859;49.204;8.140;2022-10-31T12:02:19;6.27;;;4.93;;
73575;SDS011;61859;49.204;8.140;2022-10-31T12:04:46;7.33;;;5.00;;
73575;SDS011;61859;49.204;8.140;2022-10-31T12:07:27;6.37;;;4.80;;
73575;SDS011;61859;49.204;8.140;2022-10-31T12:09:52;6.47;;;4.60;;
73575;SDS011;61859;49.204;8.140;2022-10-31T12:13:01;9.87;;;4.63;;
73575;SDS011;61859;49.204;8.140;2022-10-31T12:15:26;6.37;;;4.40;;
73575;SDS011;61859;49.204;8.140;2022-10-31T12:23:41;6.97;;;5.00;;
73575;SDS011;61859;49.204;8.140;2022-10-31T12:26:32;10.03;;;5.30;;
73575;SDS011;61859;49.204;8.140;2022-10-31T12:32:05;7.90;;;4.93;;
73575;SDS011;61859;49.204;8.140;2022-10-31T12:34:58;8.63;;;4.83;;
73575;SDS011;61859;49.204;8.140;2022-10-31T12:40:18;9.03;;;5.40;;
73575;SDS011;61859;49.204;8.140;2022-10-31T12:43:11;8.90;;;4.90;;
73575;SDS011;61859;49.204;8.140;2022-10-31T12:45:58;8.53;;;4.70;;
73575;SDS011;61859;49.204;8.140;2022-10-31T12:48:28;9.97;;;5.63;;
73575;SDS011;61859;49.204;8.140;2022-10-31T12:53:57;8.70;;;5.50;;
73575;SDS011;61859;49.204;8.140;2022-10-31T12:57:13;8.80;;;5.23;;
73575;SDS011;61859;49.204;8.140;2022-10-31T12:59:45;7.37;;;4.87;;
73575;SDS011;61859;49.204;8.140;2022-10-31T13:10:28;7.60;;;4.90;;
73575;SDS011;61859;49.204;8.140;2022-10-31T13:13:25;10.80;;;4.77;;
73575;SDS011;61859;49.204;8.140;2022-10-31T13:15:57;7.47;;;5.30;;
73575;SDS011;61859;49.204;8.140;2022-10-31T13:18:30;6.07;;;4.60;;
73575;SDS011;61859;49.204;8.140;2022-10-31T13:21:03;7.23;;;5.10;;
73575;SDS011;61859;49.204;8.140;2022-10-31T13:23:35;8.37;;;5.17;;
73575;SDS011;61859;49.204;8.140;2022-10-31T13:26:12;8.97;;;5.33;;
73575;SDS011;61859;49.204;8.140;2022-10-31T13:28:45;8.40;;;5.27;;
73575;SDS011;61859;49.204;8.140;2022-10-31T13:31:24;6.50;;;5.17;;
73575;SDS011;61859;49.204;8.140;2022-10-31T13:33:54;10.63;;;5.70;;
73575;SDS011;61859;49.204;8.140;2022-10-31T13:36:34;7.27;;;4.83;;
73575;SDS011;61859;49.204;8.140;2022-10-31T13:44:25;8.70;;;5.23;;
73575;SDS011;61859;49.204;8.140;2022-10-31T13:46:53;6.40;;;4.77;;
73575;SDS011;61859;49.204;8.140;2022-10-31T13:49:25;8.00;;;4.73;;
73575;SDS011;61859;49.204;8.140;2022-10-31T13:54:43;8.17;;;5.17;;
73575;SDS011;61859;49.204;8.140;2022-10-31T13:57:24;7.47;;;4.67;;
73575;SDS011;61859;49.204;8.140;2022-10-31T14:00:04;9.33;;;5.43;;
73575;SDS011;61859;49.204;8.140;2022-10-31T14:02:47;8.03;;;5.03;;
73575;SDS011;61859;49.204;8.140;2022-10-31T14:05:21;6.73;;;5.07;;
73575;SDS011;61859;49.204;8.140;2022-10-31T14:07:51;7.87;;;4.83;;
73575;SDS011;61859;49.204;8.140;2022-10-31T14:10:31;5.80;;;4.67;;
73575;SDS011;61859;49.204;8.140;2022-10-31T14:13:06;11.27;;;5.17;;
73575;SDS011;61859;49.204;8.140;2022-10-31T14:15:42;6.20;;;4.43;;
73575;SDS011;61859;49.204;8.140;2022-10-31T14:18:33;8.90;;;5.40;;
73575;SDS011;61859;49.204;8.140;2022-10-31T14:21:13;8.20;;;4.40;;
73575;SDS011;61859;49.204;8.140;2022-10-31T14:23:48;7.70;;;4.67;;
73575;SDS011;61859;49.204;8.140;2022-10-31T14:32:06;5.57;;;;;
73575;SDS011;61859;49.204;8.140;2022-10-31T14:34:40;11.60;;;5.43;;
73575;SDS011;61859;49.204;8.140;2022-10-31T14:42:51;9.57;;;5.40;;
73575;SDS011;61859;49.204;8.140;2022-10-31T14:51:07;12.03;;;6.07;;
73575;SDS011;61859;49.204;8.140;2022-10-31T14:53:49;10.80;;;5.70;;
73575;SDS011;61859;49.204;8.140;2022-10-31T14:56:29;9.20;;;5.63;;
73575;SDS011;61859;49.204;8.140;2022-10-31T14:59:02;10.17;;;5.27;;
73575;SDS011;61859;49.204;8.140;2022-10-31T15:01:33;7.87;;;4.87;;
73575;SDS011;61859;49.204;8.140;2022-10-31T15:04:06;10.77;;;5.73;;
73575;SDS011;61859;49.204;8.140;2022-10-31T15:06:42;13.20;;;5.77;;
73575;SDS011;61859;49.204;8.140;2022-10-31T15:09:32;11.90;;;5.80;;
73575;SDS011;61859;49.204;8.140;2022-10-31T15:11:59;7.00;;;5.03;;
73575;SDS011;61859;49.204;8.140;2022-10-31T15:16:53;17.77;;;6.10;;
73575;SDS011;61859;49.204;8.140;2022-10-31T15:19:21;11.20;;;5.37;;
73575;SDS011;61859;49.204;8.140;2022-10-31T15:21:50;11.47;;;5.50;;
73575;SDS011;61859;49.204;8.140;2022-10-31T15:24:17;13.80;;;6.57;;
73575;SDS011;61859;49.204;8.140;2022-10-31T15:26:44;8.20;;;4.97;;
73575;SDS011;61859;49.204;8.140;2022-10-31T15:29:14;6.50;;;5.03;;
73575;SDS011;61859;49.204;8.140;2022-10-31T15:31:54;10.03;;;5.70;;
73575;SDS011;61859;49.204;8.140;2022-10-31T15:37:09;7.63;;;5.03;;
73575;SDS011;61859;49.204;8.140;2022-10-31T15:39:40;9.63;;;5.73;;
73575;SDS011;61859;49.204;8.140;2022-10-31T15:42:23;8.57;;;5.43;;
73575;SDS011;61859;49.204;8.140;2022-10-31T15:47:22;9.53;;;5.93;;
73575;SDS011;61859;49.204;8.140;2022-10-31T15:49:52;11.53;;;5.97;;
73575;SDS011;61859;49.204;8.140;2022-10-31T15:55:02;11.60;;;5.40;;
73575;SDS011;61859;49.204;8.140;2022-10-31T15:57:38;11.53;;;5.77;;
73575;SDS011;61859;49.204;8.140;2022-10-31T16:00:20;8.67;;;5.00;;
73575;SDS011;61859;49.204;8.140;2022-10-31T16:03:19;7.83;;;5.07;;
73575;SDS011;61859;49.204;8.140;2022-10-31T16:05:53;6.27;;;5.07;;
73575;SDS011;61859;49.204;8.140;2022-10-31T16:13:33;8.53;;;5.73;;
73575;SDS011;61859;49.204;8.140;2022-10-31T16:16:01;7.80;;;4.90;;
73575;SDS011;61859;49.204;8.140;2022-10-31T16:18:38;8.70;;;5.63;;
73575;SDS011;61859;49.204;8.140;2022-10-31T16:21:06;6.07;;;5.20;;
73575;SDS011;61859;49.204;8.140;2022-10-31T16:23:33;8.40;;;5.03;;
73575;SDS011;61859;49.204;8.140;2022-10-31T16:25:59;9.93;;;5.60;;
73575;SDS011;61859;49.204;8.140;2022-10-31T16:28:25;10.50;;;6.10;;
73575;SDS011;61859;49.204;8.140;2022-10-31T16:30:53;11.20;;;5.83;;
73575;SDS011;61859;49.204;8.140;2022-10-31T16:39:03;13.47;;;5.47;;
73575;SDS011;61859;49.204;8.140;2022-10-31T16:41:29;11.03;;;5.63;;
73575;SDS011;61859;49.204;8.140;2022-10-31T16:43:54;9.27;;;5.60;;
73575;SDS011;61859;49.204;8.140;2022-10-31T16:46:21;9.20;;;5.77;;
73575;SDS011;61859;49.204;8.140;2022-10-31T16:48:49;8.70;;;6.03;;
73575;SDS011;61859;49.204;8.140;2022-10-31T16:51:15;8.53;;;5.40;;
73575;SDS011;61859;49.204;8.140;2022-10-31T16:53:41;10.33;;;5.67;;
73575;SDS011;61859;49.204;8.140;2022-10-31T16:56:06;7.80;;;5.77;;
73575;SDS011;61859;49.204;8.140;2022-10-31T16:58:54;9.37;;;6.87;;
73575;SDS011;61859;49.204;8.140;2022-10-31T17:01:20;12.03;;;6.83;;
73575;SDS011;61859;49.204;8.140;2022-10-31T17:03:46;9.63;;;6.70;;
73575;SDS011;61859;49.204;8.140;2022-10-31T17:06:12;9.00;;;6.90;;